sensor_id;sensor_type;location;lat;lon;timestamp;P1;durP1;ratioP1;P2;durP2;ratioP2
62353;SDS011;48391;49.184;2.418;2023-05-10T00:00:33;0.10;;;0.10;;
62353;SDS011;48391;49.184;2.418;2023-05-10T00:02:59;0.52;;;0.47;;
62353;SDS011;48391;49.184;2.418;2023-05-10T00:05:25;0.85;;;0.30;;
62353;SDS011;48391;49.184;2.418;2023-05-10T00:07:51;1.65;;;0.30;;
62353;SDS011;48391;49.184;2.418;2023-05-10T00:10:17;0.00;;;0.00;;
62353;SDS011;48391;49.184;2.418;2023-05-10T00:12:43;0.20;;;0.10;;
62353;SDS011;48391;49.184;2.418;2023-05-10T00:15:09;0.30;;;0.00;;
62353;SDS011;48391;49.184;2.418;2023-05-10T00:17:35;0.52;;;0.10;;
62353;SDS011;48391;49.184;2.418;2023-05-10T00:20:01;0.35;;;0.08;;
62353;SDS011;48391;49.184;2.418;2023-05-10T00:22:29;3.13;;;0.30;;
62353;SDS011;48391;49.184;2.418;2023-05-10T00:24:55;0.30;;;0.15;;
62353;SDS011;48391;49.184;2.418;2023-05-10T00:27:21;1.88;;;0.10;;
62353;SDS011;48391;49.184;2.418;2023-05-10T00:29:48;0.63;;;0.30;;
62353;SDS011;48391;49.184;2.418;2023-05-10T00:32:14;3.75;;;0.30;;
62353;SDS011;48391;49.184;2.418;2023-05-10T00:34:40;1.23;;;0.32;;
62353;SDS011;48391;49.184;2.418;2023-05-10T00:37:06;2.05;;;0.10;;
62353;SDS011;48391;49.184;2.418;2023-05-10T00:39:32;0.13;;;0.10;;
62353;SDS011;48391;49.184;2.418;2023-05-10T00:41:58;1.25;;;0.22;;
62353;SDS011;48391;49.184;2.418;2023-05-10T00:44:25;0.43;;;0.10;;
62353;SDS011;48391;49.184;2.418;2023-05-10T00:46:51;0.30;;;0.15;;
62353;SDS011;48391;49.184;2.418;2023-05-10T00:49:17;0.32;;;0.17;;
62353;SDS011;48391;49.184;2.418;2023-05-10T00:51:43;0.52;;;0.20;;
62353;SDS011;48391;49.184;2.418;2023-05-10T00:54:11;2.17;;;0.30;;
62353;SDS011;48391;49.184;2.418;2023-05-10T00:56:37;2.28;;;0.30;;
62353;SDS011;48391;49.184;2.418;2023-05-10T00:59:03;2.80;;;0.30;;
62353;SDS011;48391;49.184;2.418;2023-05-10T01:01:29;1.92;;;0.40;;
62353;SDS011;48391;49.184;2.418;2023-05-10T01:03:56;1.13;;;0.10;;
62353;SDS011;48391;49.184;2.418;2023-05-10T01:06:22;0.63;;;0.20;;
62353;SDS011;48391;49.184;2.418;2023-05-10T01:08:48;0.43;;;0.17;;
62353;SDS011;48391;49.184;2.418;2023-05-10T01:11:14;2.38;;;0.40;;
62353;SDS011;48391;49.184;2.418;2023-05-10T01:13:41;1.98;;;1.13;;
62353;SDS011;48391;49.184;2.418;2023-05-10T01:16:07;1.75;;;0.40;;
62353;SDS011;48391;49.184;2.418;2023-05-10T01:18:35;1.52;;;0.30;;
62353;SDS011;48391;49.184;2.418;2023-05-10T01:24:01;3.95;;;0.50;;
62353;SDS011;48391;49.184;2.418;2023-05-10T01:26:39;0.68;;;0.30;;
62353;SDS011;48391;49.184;2.418;2023-05-10T01:34:31;2.10;;;1.08;;
62353;SDS011;48391;49.184;2.418;2023-05-10T01:37:05;1.08;;;0.30;;
62353;SDS011;48391;49.184;2.418;2023-05-10T01:39:44;1.92;;;0.60;;
62353;SDS011;48391;49.184;2.418;2023-05-10T01:42:14;0.52;;;0.30;;
62353;SDS011;48391;49.184;2.418;2023-05-10T01:47:12;1.40;;;0.40;;
62353;SDS011;48391;49.184;2.418;2023-05-10T01:49:47;0.20;;;0.20;;
62353;SDS011;48391;49.184;2.418;2023-05-10T01:52:15;1.48;;;0.47;;
62353;SDS011;48391;49.184;2.418;2023-05-10T01:54:53;2.30;;;0.25;;
62353;SDS011;48391;49.184;2.418;2023-05-10T01:57:20;0.88;;;0.30;;
62353;SDS011;48391;49.184;2.418;2023-05-10T01:59:48;0.15;;;0.10;;
62353;SDS011;48391;49.184;2.418;2023-05-10T02:02:15;1.48;;;0.35;;
62353;SDS011;48391;49.184;2.418;2023-05-10T02:04:43;1.88;;;0.55;;
62353;SDS011;48391;49.184;2.418;2023-05-10T02:09:45;1.27;;;0.28;;
62353;SDS011;48391;49.184;2.418;2023-05-10T02:12:13;2.63;;;0.20;;
62353;SDS011;48391;49.184;2.418;2023-05-10T02:14:39;2.28;;;0.77;;
62353;SDS011;48391;49.184;2.418;2023-05-10T02:17:07;1.20;;;0.90;;
62353;SDS011;48391;49.184;2.418;2023-05-10T02:19:33;0.20;;;0.10;;
62353;SDS011;48391;49.184;2.418;2023-05-10T02:22:00;0.75;;;0.10;;
62353;SDS011;48391;49.184;2.418;2023-05-10T02:24:26;1.45;;;0.20;;
62353;SDS011;48391;49.184;2.418;2023-05-10T02:26:53;0.35;;;0.25;;
62353;SDS011;48391;49.184;2.418;2023-05-10T02:29:20;1.55;;;0.68;;
62353;SDS011;48391;49.184;2.418;2023-05-10T02:31:48;0.60;;;0.30;;
62353;SDS011;48391;49.184;2.418;2023-05-10T02:34:15;1.23;;;0.57;;
62353;SDS011;48391;49.184;2.418;2023-05-10T02:36:42;0.57;;;0.10;;
62353;SDS011;48391;49.184;2.418;2023-05-10T02:39:08;0.40;;;0.05;;
62353;SDS011;48391;49.184;2.418;2023-05-10T02:41:37;0.93;;;0.32;;
62353;SDS011;48391;49.184;2.418;2023-05-10T02:44:05;0.50;;;0.30;;
62353;SDS011;48391;49.184;2.418;2023-05-10T02:46:32;0.65;;;0.13;;
62353;SDS011;48391;49.184;2.418;2023-05-10T02:48:59;0.63;;;0.13;;
62353;SDS011;48391;49.184;2.418;2023-05-10T02:51:25;0.50;;;0.08;;
62353;SDS011;48391;49.184;2.418;2023-05-10T02:53:53;1.08;;;0.10;;
62353;SDS011;48391;49.184;2.418;2023-05-10T02:56:28;1.23;;;0.20;;
62353;SDS011;48391;49.184;2.418;2023-05-10T02:58:55;1.02;;;0.10;;
62353;SDS011;48391;49.184;2.418;2023-05-10T03:01:21;0.20;;;0.10;;
62353;SDS011;48391;49.184;2.418;2023-05-10T03:03:47;0.52;;;0.10;;
62353;SDS011;48391;49.184;2.418;2023-05-10T03:06:13;1.38;;;0.20;;
62353;SDS011;48391;49.184;2.418;2023-05-10T03:11:43;0.40;;;0.10;;
62353;SDS011;48391;49.184;2.418;2023-05-10T03:17:04;0.85;;;0.00;;
62353;SDS011;48391;49.184;2.418;2023-05-10T03:19:36;0.88;;;0.30;;
62353;SDS011;48391;49.184;2.418;2023-05-10T03:22:08;3.92;;;0.43;;
62353;SDS011;48391;49.184;2.418;2023-05-10T03:24:35;0.15;;;0.00;;
62353;SDS011;48391;49.184;2.418;2023-05-10T03:27:01;0.20;;;0.17;;
62353;SDS011;48391;49.184;2.418;2023-05-10T03:29:29;0.17;;;0.00;;
62353;SDS011;48391;49.184;2.418;2023-05-10T03:31:57;1.00;;;0.00;;
62353;SDS011;48391;49.184;2.418;2023-05-10T03:34:26;1.08;;;0.40;;
62353;SDS011;48391;49.184;2.418;2023-05-10T03:36:52;0.30;;;0.08;;
62353;SDS011;48391;49.184;2.418;2023-05-10T03:39:18;0.68;;;0.08;;
62353;SDS011;48391;49.184;2.418;2023-05-10T03:41:46;1.38;;;0.82;;
62353;SDS011;48391;49.184;2.418;2023-05-10T03:44:12;0.68;;;0.20;;
62353;SDS011;48391;49.184;2.418;2023-05-10T03:46:38;1.45;;;0.10;;
62353;SDS011;48391;49.184;2.418;2023-05-10T03:49:04;0.30;;;0.00;;
62353;SDS011;48391;49.184;2.418;2023-05-10T03:51:30;0.55;;;0.00;;
62353;SDS011;48391;49.184;2.418;2023-05-10T03:53:57;0.28;;;0.00;;
62353;SDS011;48391;49.184;2.418;2023-05-10T03:56:23;1.27;;;0.10;;
62353;SDS011;48391;49.184;2.418;2023-05-10T03:58:49;0.15;;;0.00;;
62353;SDS011;48391;49.184;2.418;2023-05-10T04:01:15;0.90;;;0.20;;
62353;SDS011;48391;49.184;2.418;2023-05-10T04:03:42;0.50;;;0.20;;
62353;SDS011;48391;49.184;2.418;2023-05-10T04:06:08;0.40;;;0.10;;
62353;SDS011;48391;49.184;2.418;2023-05-10T04:08:36;0.38;;;0.10;;
62353;SDS011;48391;49.184;2.418;2023-05-10T04:11:09;1.40;;;0.17;;
62353;SDS011;48391;49.184;2.418;2023-05-10T04:13:36;0.38;;;0.17;;
62353;SDS011;48391;49.184;2.418;2023-05-10T04:16:02;0.75;;;0.10;;
62353;SDS011;48391;49.184;2.418;2023-05-10T04:18:28;0.50;;;0.17;;
62353;SDS011;48391;49.184;2.418;2023-05-10T04:20:54;0.00;;;0.00;;
62353;SDS011;48391;49.184;2.418;2023-05-10T04:23:20;0.45;;;0.00;;
62353;SDS011;48391;49.184;2.418;2023-05-10T04:25:46;0.30;;;0.03;;
62353;SDS011;48391;49.184;2.418;2023-05-10T04:28:12;0.10;;;0.10;;
62353;SDS011;48391;49.184;2.418;2023-05-10T04:30:39;0.10;;;0.00;;
62353;SDS011;48391;49.184;2.418;2023-05-10T04:33:05;0.60;;;0.20;;
62353;SDS011;48391;49.184;2.418;2023-05-10T04:35:32;0.20;;;0.10;;
62353;SDS011;48391;49.184;2.418;2023-05-10T04:37:59;0.57;;;0.10;;
62353;SDS011;48391;49.184;2.418;2023-05-10T04:40:25;0.52;;;0.15;;
62353;SDS011;48391;49.184;2.418;2023-05-10T04:42:51;0.85;;;0.85;;
62353;SDS011;48391;49.184;2.418;2023-05-10T04:45:18;0.40;;;0.10;;
62353;SDS011;48391;49.184;2.418;2023-05-10T04:47:44;0.32;;;0.10;;
62353;SDS011;48391;49.184;2.418;2023-05-10T04:50:10;0.50;;;0.10;;
62353;SDS011;48391;49.184;2.418;2023-05-10T04:52:36;0.00;;;0.00;;
62353;SDS011;48391;49.184;2.418;2023-05-10T04:55:02;0.20;;;0.10;;
62353;SDS011;48391;49.184;2.418;2023-05-10T04:57:29;0.17;;;0.05;;
62353;SDS011;48391;49.184;2.418;2023-05-10T04:59:55;0.10;;;0.10;;
62353;SDS011;48391;49.184;2.418;2023-05-10T05:02:21;0.75;;;0.30;;
62353;SDS011;48391;49.184;2.418;2023-05-10T05:04:48;0.88;;;0.10;;
62353;SDS011;48391;49.184;2.418;2023-05-10T05:07:14;0.00;;;0.00;;
62353;SDS011;48391;49.184;2.418;2023-05-10T05:09:41;0.30;;;0.17;;
62353;SDS011;48391;49.184;2.418;2023-05-10T05:12:07;0.88;;;0.25;;
62353;SDS011;48391;49.184;2.418;2023-05-10T05:14:33;0.15;;;0.05;;
62353;SDS011;48391;49.184;2.418;2023-05-10T05:17:00;0.10;;;0.00;;
62353;SDS011;48391;49.184;2.418;2023-05-10T05:19:31;0.28;;;0.20;;
62353;SDS011;48391;49.184;2.418;2023-05-10T05:22:13;0.28;;;0.22;;
62353;SDS011;48391;49.184;2.418;2023-05-10T05:24:42;0.30;;;0.20;;
62353;SDS011;48391;49.184;2.418;2023-05-10T05:27:10;0.43;;;0.30;;
62353;SDS011;48391;49.184;2.418;2023-05-10T05:29:39;0.47;;;0.32;;
62353;SDS011;48391;49.184;2.418;2023-05-10T05:32:05;1.02;;;0.20;;
62353;SDS011;48391;49.184;2.418;2023-05-10T05:34:38;1.83;;;0.15;;
62353;SDS011;48391;49.184;2.418;2023-05-10T05:37:06;0.40;;;0.20;;
62353;SDS011;48391;49.184;2.418;2023-05-10T05:39:43;0.52;;;0.52;;
62353;SDS011;48391;49.184;2.418;2023-05-10T05:42:12;1.63;;;0.40;;
62353;SDS011;48391;49.184;2.418;2023-05-10T05:44:58;0.90;;;0.10;;
62353;SDS011;48391;49.184;2.418;2023-05-10T05:47:53;0.10;;;0.10;;
62353;SDS011;48391;49.184;2.418;2023-05-10T05:59:57;0.47;;;0.10;;
62353;SDS011;48391;49.184;2.418;2023-05-10T06:02:32;0.00;;;0.00;;
62353;SDS011;48391;49.184;2.418;2023-05-10T06:04:58;0.22;;;0.20;;
62353;SDS011;48391;49.184;2.418;2023-05-10T06:07:25;0.15;;;0.00;;
62353;SDS011;48391;49.184;2.418;2023-05-10T06:09:51;0.10;;;0.10;;
62353;SDS011;48391;49.184;2.418;2023-05-10T06:12:17;0.68;;;0.40;;
62353;SDS011;48391;49.184;2.418;2023-05-10T06:14:43;1.20;;;0.20;;
62353;SDS011;48391;49.184;2.418;2023-05-10T06:17:09;0.52;;;0.20;;
62353;SDS011;48391;49.184;2.418;2023-05-10T06:19:35;0.30;;;0.30;;
62353;SDS011;48391;49.184;2.418;2023-05-10T06:22:02;0.22;;;0.10;;
62353;SDS011;48391;49.184;2.418;2023-05-10T06:24:28;0.10;;;0.10;;
62353;SDS011;48391;49.184;2.418;2023-05-10T06:26:54;0.30;;;0.00;;
62353;SDS011;48391;49.184;2.418;2023-05-10T06:29:20;2.05;;;0.30;;
62353;SDS011;48391;49.184;2.418;2023-05-10T06:31:46;0.10;;;0.08;;
62353;SDS011;48391;49.184;2.418;2023-05-10T06:34:13;0.22;;;0.20;;
62353;SDS011;48391;49.184;2.418;2023-05-10T06:36:39;0.20;;;0.03;;
62353;SDS011;48391;49.184;2.418;2023-05-10T06:39:06;0.20;;;0.20;;
62353;SDS011;48391;49.184;2.418;2023-05-10T06:41:32;0.75;;;0.22;;
62353;SDS011;48391;49.184;2.418;2023-05-10T06:43:58;0.13;;;0.10;;
62353;SDS011;48391;49.184;2.418;2023-05-10T06:46:24;1.17;;;0.10;;
62353;SDS011;48391;49.184;2.418;2023-05-10T06:48:51;0.35;;;0.13;;
62353;SDS011;48391;49.184;2.418;2023-05-10T06:51:20;0.60;;;0.20;;
62353;SDS011;48391;49.184;2.418;2023-05-10T06:53:46;0.00;;;0.00;;
62353;SDS011;48391;49.184;2.418;2023-05-10T06:56:13;2.05;;;0.28;;
62353;SDS011;48391;49.184;2.418;2023-05-10T06:58:39;0.47;;;0.00;;
62353;SDS011;48391;49.184;2.418;2023-05-10T07:01:05;0.75;;;0.30;;
62353;SDS011;48391;49.184;2.418;2023-05-10T07:03:32;0.40;;;0.40;;
62353;SDS011;48391;49.184;2.418;2023-05-10T07:06:04;1.10;;;0.20;;
62353;SDS011;48391;49.184;2.418;2023-05-10T07:08:31;0.80;;;0.40;;
62353;SDS011;48391;49.184;2.418;2023-05-10T07:11:04;3.42;;;0.95;;
62353;SDS011;48391;49.184;2.418;2023-05-10T07:13:32;2.00;;;0.40;;
62353;SDS011;48391;49.184;2.418;2023-05-10T07:15:58;1.83;;;0.70;;
62353;SDS011;48391;49.184;2.418;2023-05-10T07:18:24;2.10;;;0.40;;
62353;SDS011;48391;49.184;2.418;2023-05-10T07:20:51;0.43;;;0.30;;
62353;SDS011;48391;49.184;2.418;2023-05-10T07:23:17;0.57;;;0.40;;
62353;SDS011;48391;49.184;2.418;2023-05-10T07:25:47;0.80;;;0.77;;
62353;SDS011;48391;49.184;2.418;2023-05-10T07:28:14;0.75;;;0.52;;
62353;SDS011;48391;49.184;2.418;2023-05-10T07:30:40;1.95;;;0.68;;
62353;SDS011;48391;49.184;2.418;2023-05-10T07:33:06;0.50;;;0.35;;
62353;SDS011;48391;49.184;2.418;2023-05-10T07:35:33;0.75;;;0.57;;
62353;SDS011;48391;49.184;2.418;2023-05-10T07:37:59;0.93;;;0.20;;
62353;SDS011;48391;49.184;2.418;2023-05-10T07:40:26;0.57;;;0.50;;
62353;SDS011;48391;49.184;2.418;2023-05-10T07:42:52;0.95;;;0.47;;
62353;SDS011;48391;49.184;2.418;2023-05-10T07:45:18;0.88;;;0.38;;
62353;SDS011;48391;49.184;2.418;2023-05-10T07:47:44;2.05;;;0.60;;
62353;SDS011;48391;49.184;2.418;2023-05-10T07:50:10;0.28;;;0.28;;
62353;SDS011;48391;49.184;2.418;2023-05-10T07:52:37;1.50;;;0.50;;
62353;SDS011;48391;49.184;2.418;2023-05-10T07:55:06;0.95;;;0.88;;
62353;SDS011;48391;49.184;2.418;2023-05-10T07:57:33;0.80;;;0.68;;
62353;SDS011;48391;49.184;2.418;2023-05-10T07:59:59;1.27;;;0.45;;
62353;SDS011;48391;49.184;2.418;2023-05-10T08:02:25;2.22;;;1.58;;
62353;SDS011;48391;49.184;2.418;2023-05-10T08:04:52;2.63;;;1.92;;
62353;SDS011;48391;49.184;2.418;2023-05-10T08:07:18;1.55;;;1.45;;
62353;SDS011;48391;49.184;2.418;2023-05-10T08:09:44;1.00;;;1.00;;
62353;SDS011;48391;49.184;2.418;2023-05-10T08:12:10;1.75;;;1.52;;
62353;SDS011;48391;49.184;2.418;2023-05-10T08:14:36;1.92;;;1.50;;
62353;SDS011;48391;49.184;2.418;2023-05-10T08:17:03;2.42;;;1.70;;
62353;SDS011;48391;49.184;2.418;2023-05-10T08:19:29;1.70;;;1.50;;
62353;SDS011;48391;49.184;2.418;2023-05-10T08:21:55;1.73;;;1.60;;
62353;SDS011;48391;49.184;2.418;2023-05-10T08:24:22;2.65;;;1.77;;
62353;SDS011;48391;49.184;2.418;2023-05-10T08:26:48;2.10;;;1.95;;
62353;SDS011;48391;49.184;2.418;2023-05-10T08:29:14;3.28;;;2.97;;
62353;SDS011;48391;49.184;2.418;2023-05-10T08:31:40;2.75;;;2.38;;
62353;SDS011;48391;49.184;2.418;2023-05-10T08:34:06;4.15;;;2.88;;
62353;SDS011;48391;49.184;2.418;2023-05-10T08:36:32;6.78;;;2.78;;
62353;SDS011;48391;49.184;2.418;2023-05-10T08:38:58;2.03;;;1.80;;
62353;SDS011;48391;49.184;2.418;2023-05-10T08:41:25;3.30;;;2.05;;
62353;SDS011;48391;49.184;2.418;2023-05-10T08:43:54;4.88;;;2.47;;
62353;SDS011;48391;49.184;2.418;2023-05-10T08:46:21;4.97;;;2.60;;
62353;SDS011;48391;49.184;2.418;2023-05-10T08:48:48;3.25;;;2.95;;
62353;SDS011;48391;49.184;2.418;2023-05-10T08:51:17;3.15;;;2.60;;
62353;SDS011;48391;49.184;2.418;2023-05-10T08:53:43;3.78;;;3.40;;
62353;SDS011;48391;49.184;2.418;2023-05-10T08:56:10;4.85;;;3.13;;
62353;SDS011;48391;49.184;2.418;2023-05-10T08:58:36;4.93;;;3.60;;
62353;SDS011;48391;49.184;2.418;2023-05-10T09:01:03;9.80;;;3.80;;
62353;SDS011;48391;49.184;2.418;2023-05-10T09:03:29;3.75;;;2.65;;
62353;SDS011;48391;49.184;2.418;2023-05-10T09:05:56;5.75;;;2.83;;
62353;SDS011;48391;49.184;2.418;2023-05-10T09:08:25;4.22;;;3.47;;
62353;SDS011;48391;49.184;2.418;2023-05-10T09:10:52;5.93;;;4.20;;
62353;SDS011;48391;49.184;2.418;2023-05-10T09:13:18;6.88;;;3.45;;
62353;SDS011;48391;49.184;2.418;2023-05-10T09:15:45;4.88;;;3.78;;
62353;SDS011;48391;49.184;2.418;2023-05-10T09:18:11;11.60;;;4.93;;
62353;SDS011;48391;49.184;2.418;2023-05-10T09:20:37;4.40;;;3.35;;
62353;SDS011;48391;49.184;2.418;2023-05-10T09:23:03;5.72;;;3.42;;
62353;SDS011;48391;49.184;2.418;2023-05-10T09:25:30;2.95;;;2.08;;
62353;SDS011;48391;49.184;2.418;2023-05-10T09:27:58;5.07;;;2.35;;
62353;SDS011;48391;49.184;2.418;2023-05-10T09:30:26;5.35;;;3.10;;
62353;SDS011;48391;49.184;2.418;2023-05-10T09:32:52;4.05;;;2.63;;
62353;SDS011;48391;49.184;2.418;2023-05-10T09:35:20;5.28;;;4.47;;
62353;SDS011;48391;49.184;2.418;2023-05-10T09:37:47;8.70;;;4.63;;
62353;SDS011;48391;49.184;2.418;2023-05-10T09:42:41;4.35;;;2.72;;
62353;SDS011;48391;49.184;2.418;2023-05-10T09:45:07;4.63;;;3.25;;
62353;SDS011;48391;49.184;2.418;2023-05-10T09:47:34;5.78;;;2.75;;
62353;SDS011;48391;49.184;2.418;2023-05-10T09:50:01;4.85;;;3.00;;
62353;SDS011;48391;49.184;2.418;2023-05-10T09:55:14;4.53;;;2.90;;
62353;SDS011;48391;49.184;2.418;2023-05-10T09:57:40;10.43;;;3.65;;
62353;SDS011;48391;49.184;2.418;2023-05-10T10:00:06;5.45;;;3.17;;
62353;SDS011;48391;49.184;2.418;2023-05-10T10:02:34;4.78;;;3.10;;
62353;SDS011;48391;49.184;2.418;2023-05-10T10:05:01;5.70;;;2.53;;
62353;SDS011;48391;49.184;2.418;2023-05-10T10:07:29;10.88;;;3.63;;
62353;SDS011;48391;49.184;2.418;2023-05-10T10:09:56;10.07;;;4.13;;
62353;SDS011;48391;49.184;2.418;2023-05-10T10:12:22;12.32;;;4.38;;
62353;SDS011;48391;49.184;2.418;2023-05-10T10:14:48;6.50;;;3.13;;
62353;SDS011;48391;49.184;2.418;2023-05-10T10:17:15;15.23;;;4.72;;
62353;SDS011;48391;49.184;2.418;2023-05-10T10:19:42;4.68;;;2.60;;
62353;SDS011;48391;49.184;2.418;2023-05-10T10:22:08;8.70;;;4.13;;
62353;SDS011;48391;49.184;2.418;2023-05-10T10:24:37;10.63;;;2.97;;
62353;SDS011;48391;49.184;2.418;2023-05-10T10:27:08;10.82;;;3.85;;
62353;SDS011;48391;49.184;2.418;2023-05-10T10:29:59;6.45;;;3.20;;
62353;SDS011;48391;49.184;2.418;2023-05-10T10:32:25;4.93;;;3.88;;
62353;SDS011;48391;49.184;2.418;2023-05-10T10:34:53;19.08;;;3.72;;
62353;SDS011;48391;49.184;2.418;2023-05-10T10:37:21;5.68;;;3.30;;
62353;SDS011;48391;49.184;2.418;2023-05-10T10:39:50;4.78;;;2.67;;
62353;SDS011;48391;49.184;2.418;2023-05-10T10:42:39;6.30;;;3.33;;
62353;SDS011;48391;49.184;2.418;2023-05-10T10:45:11;10.52;;;3.78;;
62353;SDS011;48391;49.184;2.418;2023-05-10T10:47:38;14.55;;;4.72;;
62353;SDS011;48391;49.184;2.418;2023-05-10T10:50:05;9.40;;;3.45;;
62353;SDS011;48391;49.184;2.418;2023-05-10T10:52:45;11.90;;;3.15;;
62353;SDS011;48391;49.184;2.418;2023-05-10T10:57:52;10.90;;;3.63;;
62353;SDS011;48391;49.184;2.418;2023-05-10T11:05:37;15.90;;;5.38;;
62353;SDS011;48391;49.184;2.418;2023-05-10T11:08:14;7.80;;;3.75;;
62353;SDS011;48391;49.184;2.418;2023-05-10T11:10:51;5.18;;;3.30;;
62353;SDS011;48391;49.184;2.418;2023-05-10T11:13:21;6.93;;;2.90;;
62353;SDS011;48391;49.184;2.418;2023-05-10T11:15:52;5.70;;;2.50;;
62353;SDS011;48391;49.184;2.418;2023-05-10T11:20:58;3.17;;;2.30;;
62353;SDS011;48391;49.184;2.418;2023-05-10T11:23:31;4.13;;;2.42;;
62353;SDS011;48391;49.184;2.418;2023-05-10T11:25:58;7.60;;;2.85;;
62353;SDS011;48391;49.184;2.418;2023-05-10T11:28:25;8.70;;;2.95;;
62353;SDS011;48391;49.184;2.418;2023-05-10T11:30:52;8.07;;;2.50;;
62353;SDS011;48391;49.184;2.418;2023-05-10T11:33:19;5.05;;;2.22;;
62353;SDS011;48391;49.184;2.418;2023-05-10T11:35:45;5.93;;;2.72;;
62353;SDS011;48391;49.184;2.418;2023-05-10T11:38:12;5.57;;;2.22;;
62353;SDS011;48391;49.184;2.418;2023-05-10T11:40:39;5.93;;;2.20;;
62353;SDS011;48391;49.184;2.418;2023-05-10T11:43:05;8.63;;;2.55;;
62353;SDS011;48391;49.184;2.418;2023-05-10T11:45:32;5.93;;;2.83;;
62353;SDS011;48391;49.184;2.418;2023-05-10T11:47:58;9.25;;;2.50;;
62353;SDS011;48391;49.184;2.418;2023-05-10T11:50:24;4.63;;;2.42;;
62353;SDS011;48391;49.184;2.418;2023-05-10T11:52:51;6.85;;;3.63;;
62353;SDS011;48391;49.184;2.418;2023-05-10T11:55:18;9.00;;;3.58;;
62353;SDS011;48391;49.184;2.418;2023-05-10T11:57:44;6.15;;;3.20;;
62353;SDS011;48391;49.184;2.418;2023-05-10T12:00:11;4.20;;;2.08;;
62353;SDS011;48391;49.184;2.418;2023-05-10T12:02:38;8.13;;;2.13;;
62353;SDS011;48391;49.184;2.418;2023-05-10T12:05:04;7.35;;;3.05;;
62353;SDS011;48391;49.184;2.418;2023-05-10T12:07:31;6.82;;;2.20;;
62353;SDS011;48391;49.184;2.418;2023-05-10T12:12:43;6.25;;;2.08;;
62353;SDS011;48391;49.184;2.418;2023-05-10T12:15:19;5.97;;;1.73;;
62353;SDS011;48391;49.184;2.418;2023-05-10T12:17:45;5.00;;;2.60;;
62353;SDS011;48391;49.184;2.418;2023-05-10T12:20:21;7.47;;;2.63;;
62353;SDS011;48391;49.184;2.418;2023-05-10T12:22:51;6.60;;;2.70;;
62353;SDS011;48391;49.184;2.418;2023-05-10T12:27:54;6.60;;;2.55;;
62353;SDS011;48391;49.184;2.418;2023-05-10T12:30:24;5.43;;;2.28;;
62353;SDS011;48391;49.184;2.418;2023-05-10T12:32:51;7.28;;;2.20;;
62353;SDS011;48391;49.184;2.418;2023-05-10T12:35:17;5.30;;;2.70;;
62353;SDS011;48391;49.184;2.418;2023-05-10T12:37:47;7.35;;;3.28;;
62353;SDS011;48391;49.184;2.418;2023-05-10T12:40:13;5.72;;;2.83;;
62353;SDS011;48391;49.184;2.418;2023-05-10T12:42:39;9.60;;;3.03;;
62353;SDS011;48391;49.184;2.418;2023-05-10T12:45:06;5.03;;;1.80;;
62353;SDS011;48391;49.184;2.418;2023-05-10T12:47:32;5.47;;;1.77;;
62353;SDS011;48391;49.184;2.418;2023-05-10T12:49:59;6.18;;;3.13;;
62353;SDS011;48391;49.184;2.418;2023-05-10T12:52:25;5.53;;;2.75;;
62353;SDS011;48391;49.184;2.418;2023-05-10T12:54:52;3.83;;;2.28;;
62353;SDS011;48391;49.184;2.418;2023-05-10T12:57:19;5.50;;;2.58;;
62353;SDS011;48391;49.184;2.418;2023-05-10T12:59:46;2.90;;;1.67;;
62353;SDS011;48391;49.184;2.418;2023-05-10T13:02:12;4.43;;;1.75;;
62353;SDS011;48391;49.184;2.418;2023-05-10T13:04:39;5.18;;;1.85;;
62353;SDS011;48391;49.184;2.418;2023-05-10T13:07:08;2.90;;;1.10;;
62353;SDS011;48391;49.184;2.418;2023-05-10T13:09:35;3.25;;;1.30;;
62353;SDS011;48391;49.184;2.418;2023-05-10T13:12:01;2.90;;;1.65;;
62353;SDS011;48391;49.184;2.418;2023-05-10T13:14:28;3.60;;;2.22;;
62353;SDS011;48391;49.184;2.418;2023-05-10T13:16:55;3.72;;;1.60;;
62353;SDS011;48391;49.184;2.418;2023-05-10T13:19:21;4.75;;;1.90;;
62353;SDS011;48391;49.184;2.418;2023-05-10T13:21:47;1.58;;;1.05;;
62353;SDS011;48391;49.184;2.418;2023-05-10T13:24:13;2.92;;;1.40;;
62353;SDS011;48391;49.184;2.418;2023-05-10T13:26:40;3.67;;;1.45;;
62353;SDS011;48391;49.184;2.418;2023-05-10T13:29:06;5.45;;;2.15;;
62353;SDS011;48391;49.184;2.418;2023-05-10T13:31:33;3.13;;;1.83;;
62353;SDS011;48391;49.184;2.418;2023-05-10T13:33:59;4.05;;;2.17;;
62353;SDS011;48391;49.184;2.418;2023-05-10T13:36:26;4.35;;;1.98;;
62353;SDS011;48391;49.184;2.418;2023-05-10T13:38:52;7.70;;;2.35;;
62353;SDS011;48391;49.184;2.418;2023-05-10T13:41:18;7.25;;;2.05;;
62353;SDS011;48391;49.184;2.418;2023-05-10T13:43:44;3.85;;;1.95;;
62353;SDS011;48391;49.184;2.418;2023-05-10T13:46:11;2.60;;;1.73;;
62353;SDS011;48391;49.184;2.418;2023-05-10T13:48:37;2.50;;;1.95;;
62353;SDS011;48391;49.184;2.418;2023-05-10T13:51:03;3.85;;;1.70;;
62353;SDS011;48391;49.184;2.418;2023-05-10T13:53:29;5.28;;;1.85;;
62353;SDS011;48391;49.184;2.418;2023-05-10T13:55:55;1.65;;;0.90;;
62353;SDS011;48391;49.184;2.418;2023-05-10T13:58:22;1.90;;;0.80;;
62353;SDS011;48391;49.184;2.418;2023-05-10T14:00:48;2.65;;;0.65;;
62353;SDS011;48391;49.184;2.418;2023-05-10T14:03:14;0.93;;;0.68;;
62353;SDS011;48391;49.184;2.418;2023-05-10T14:05:40;1.67;;;0.50;;
62353;SDS011;48391;49.184;2.418;2023-05-10T14:08:06;0.80;;;0.80;;
62353;SDS011;48391;49.184;2.418;2023-05-10T14:10:34;2.88;;;0.88;;
62353;SDS011;48391;49.184;2.418;2023-05-10T14:13:00;3.33;;;1.05;;
62353;SDS011;48391;49.184;2.418;2023-05-10T14:15:28;2.03;;;0.93;;
62353;SDS011;48391;49.184;2.418;2023-05-10T14:17:54;2.53;;;0.75;;
62353;SDS011;48391;49.184;2.418;2023-05-10T14:20:20;1.02;;;0.57;;
62353;SDS011;48391;49.184;2.418;2023-05-10T14:22:46;0.73;;;0.73;;
62353;SDS011;48391;49.184;2.418;2023-05-10T14:25:12;2.58;;;0.90;;
62353;SDS011;48391;49.184;2.418;2023-05-10T14:27:39;1.08;;;0.45;;
62353;SDS011;48391;49.184;2.418;2023-05-10T14:30:05;2.25;;;1.00;;
62353;SDS011;48391;49.184;2.418;2023-05-10T14:32:31;3.47;;;1.05;;
62353;SDS011;48391;49.184;2.418;2023-05-10T14:34:57;3.95;;;1.38;;
62353;SDS011;48391;49.184;2.418;2023-05-10T14:37:24;8.65;;;1.52;;
62353;SDS011;48391;49.184;2.418;2023-05-10T14:39:50;2.78;;;1.40;;
62353;SDS011;48391;49.184;2.418;2023-05-10T14:42:17;2.47;;;1.10;;
62353;SDS011;48391;49.184;2.418;2023-05-10T14:44:43;3.10;;;0.60;;
62353;SDS011;48391;49.184;2.418;2023-05-10T14:47:09;3.22;;;0.80;;
62353;SDS011;48391;49.184;2.418;2023-05-10T14:49:35;2.53;;;0.90;;
62353;SDS011;48391;49.184;2.418;2023-05-10T14:52:02;3.20;;;0.93;;
62353;SDS011;48391;49.184;2.418;2023-05-10T14:54:28;2.35;;;0.80;;
62353;SDS011;48391;49.184;2.418;2023-05-10T14:56:54;3.05;;;1.17;;
62353;SDS011;48391;49.184;2.418;2023-05-10T14:59:20;3.17;;;0.88;;
62353;SDS011;48391;49.184;2.418;2023-05-10T15:01:46;1.00;;;0.73;;
62353;SDS011;48391;49.184;2.418;2023-05-10T15:04:12;1.15;;;0.43;;
62353;SDS011;48391;49.184;2.418;2023-05-10T15:06:41;2.08;;;0.50;;
62353;SDS011;48391;49.184;2.418;2023-05-10T15:09:07;3.10;;;0.75;;
62353;SDS011;48391;49.184;2.418;2023-05-10T15:11:34;2.10;;;0.85;;
62353;SDS011;48391;49.184;2.418;2023-05-10T15:14:00;1.05;;;0.55;;
62353;SDS011;48391;49.184;2.418;2023-05-10T15:16:26;1.33;;;0.50;;
62353;SDS011;48391;49.184;2.418;2023-05-10T15:18:53;2.17;;;0.70;;
62353;SDS011;48391;49.184;2.418;2023-05-10T15:21:19;0.95;;;0.50;;
62353;SDS011;48391;49.184;2.418;2023-05-10T15:23:45;2.60;;;1.08;;
62353;SDS011;48391;49.184;2.418;2023-05-10T15:26:11;2.05;;;0.88;;
62353;SDS011;48391;49.184;2.418;2023-05-10T15:28:37;2.90;;;1.35;;
62353;SDS011;48391;49.184;2.418;2023-05-10T15:31:03;3.42;;;1.10;;
62353;SDS011;48391;49.184;2.418;2023-05-10T15:33:29;0.70;;;0.50;;
62353;SDS011;48391;49.184;2.418;2023-05-10T15:35:55;2.08;;;0.50;;
62353;SDS011;48391;49.184;2.418;2023-05-10T15:38:21;3.58;;;0.88;;